sensor_id;sensor_type;location;lat;lon;timestamp;P1;durP1;ratioP1;P2;durP2;ratioP2
13651;SDS011;6899;51.546;6.912;2022-07-06T00:00:02;6.18;;;3.45;;
13651;SDS011;6899;51.546;6.912;2022-07-06T00:02:29;3.53;;;3.15;;
13651;SDS011;6899;51.546;6.912;2022-07-06T00:04:56;3.65;;;3.25;;
13651;SDS011;6899;51.546;6.912;2022-07-06T00:07:23;4.07;;;3.30;;
13651;SDS011;6899;51.546;6.912;2022-07-06T00:09:51;3.78;;;3.10;;
13651;SDS011;6899;51.546;6.912;2022-07-06T00:12:17;6.70;;;3.25;;
13651;SDS011;6899;51.546;6.912;2022-07-06T00:14:48;3.78;;;2.85;;
13651;SDS011;6899;51.546;6.912;2022-07-06T00:17:15;4.82;;;2.78;;
13651;SDS011;6899;51.546;6.912;2022-07-06T00:19:42;8.20;;;3.42;;
13651;SDS011;6899;51.546;6.912;2022-07-06T00:22:09;4.53;;;3.00;;
13651;SDS011;6899;51.546;6.912;2022-07-06T00:24:36;4.35;;;3.25;;
13651;SDS011;6899;51.546;6.912;2022-07-06T00:27:03;4.32;;;3.20;;
13651;SDS011;6899;51.546;6.912;2022-07-06T00:29:32;3.85;;;3.00;;
13651;SDS011;6899;51.546;6.912;2022-07-06T00:32:03;5.78;;;2.95;;
13651;SDS011;6899;51.546;6.912;2022-07-06T00:34:30;3.45;;;2.83;;
13651;SDS011;6899;51.546;6.912;2022-07-06T00:36:57;3.95;;;3.17;;
13651;SDS011;6899;51.546;6.912;2022-07-06T00:39:24;6.05;;;3.25;;
13651;SDS011;6899;51.546;6.912;2022-07-06T00:41:54;6.10;;;3.25;;
13651;SDS011;6899;51.546;6.912;2022-07-06T00:44:21;3.67;;;2.70;;
13651;SDS011;6899;51.546;6.912;2022-07-06T00:46:48;5.00;;;3.00;;
13651;SDS011;6899;51.546;6.912;2022-07-06T00:49:17;3.53;;;3.05;;
13651;SDS011;6899;51.546;6.912;2022-07-06T00:52:02;5.57;;;3.13;;
13651;SDS011;6899;51.546;6.912;2022-07-06T00:54:30;3.42;;;3.05;;
13651;SDS011;6899;51.546;6.912;2022-07-06T00:57:00;3.10;;;2.72;;
13651;SDS011;6899;51.546;6.912;2022-07-06T00:59:27;4.15;;;3.00;;
13651;SDS011;6899;51.546;6.912;2022-07-06T01:01:55;6.32;;;2.90;;
13651;SDS011;6899;51.546;6.912;2022-07-06T01:04:23;3.88;;;2.75;;
13651;SDS011;6899;51.546;6.912;2022-07-06T01:06:50;6.43;;;2.85;;
13651;SDS011;6899;51.546;6.912;2022-07-06T01:09:17;4.40;;;2.70;;
13651;SDS011;6899;51.546;6.912;2022-07-06T01:11:44;3.67;;;2.95;;
13651;SDS011;6899;51.546;6.912;2022-07-06T01:14:15;5.78;;;2.78;;
13651;SDS011;6899;51.546;6.912;2022-07-06T01:16:42;5.60;;;2.97;;
13651;SDS011;6899;51.546;6.912;2022-07-06T01:19:10;3.70;;;2.65;;
13651;SDS011;6899;51.546;6.912;2022-07-06T01:21:38;3.00;;;2.72;;
13651;SDS011;6899;51.546;6.912;2022-07-06T01:24:06;4.03;;;2.60;;
13651;SDS011;6899;51.546;6.912;2022-07-06T01:26:33;5.63;;;3.22;;
13651;SDS011;6899;51.546;6.912;2022-07-06T01:29:00;3.35;;;2.80;;
13651;SDS011;6899;51.546;6.912;2022-07-06T01:31:31;4.35;;;2.90;;
13651;SDS011;6899;51.546;6.912;2022-07-06T01:34:01;4.20;;;3.08;;
13651;SDS011;6899;51.546;6.912;2022-07-06T01:36:28;4.43;;;3.15;;
13651;SDS011;6899;51.546;6.912;2022-07-06T01:38:56;3.53;;;2.72;;
13651;SDS011;6899;51.546;6.912;2022-07-06T01:41:24;6.15;;;3.58;;
13651;SDS011;6899;51.546;6.912;2022-07-06T01:43:51;4.65;;;3.03;;
13651;SDS011;6899;51.546;6.912;2022-07-06T01:46:18;5.30;;;2.95;;
13651;SDS011;6899;51.546;6.912;2022-07-06T01:48:46;4.03;;;2.80;;
13651;SDS011;6899;51.546;6.912;2022-07-06T01:51:19;4.47;;;2.95;;
13651;SDS011;6899;51.546;6.912;2022-07-06T01:53:46;4.32;;;3.17;;
13651;SDS011;6899;51.546;6.912;2022-07-06T01:56:15;3.00;;;2.75;;
13651;SDS011;6899;51.546;6.912;2022-07-06T01:58:44;4.32;;;2.63;;
13651;SDS011;6899;51.546;6.912;2022-07-06T02:01:12;4.57;;;3.13;;
13651;SDS011;6899;51.546;6.912;2022-07-06T02:03:40;3.10;;;2.50;;
13651;SDS011;6899;51.546;6.912;2022-07-06T02:06:07;3.58;;;3.08;;
13651;SDS011;6899;51.546;6.912;2022-07-06T02:08:35;4.18;;;3.00;;
13651;SDS011;6899;51.546;6.912;2022-07-06T02:11:03;7.28;;;3.65;;
13651;SDS011;6899;51.546;6.912;2022-07-06T02:13:35;7.30;;;4.00;;
13651;SDS011;6899;51.546;6.912;2022-07-06T02:16:02;4.32;;;3.00;;
13651;SDS011;6899;51.546;6.912;2022-07-06T02:18:30;6.70;;;3.38;;
13651;SDS011;6899;51.546;6.912;2022-07-06T02:20:57;4.75;;;3.25;;
13651;SDS011;6899;51.546;6.912;2022-07-06T02:23:24;3.53;;;2.88;;
13651;SDS011;6899;51.546;6.912;2022-07-06T02:25:51;5.28;;;3.15;;
13651;SDS011;6899;51.546;6.912;2022-07-06T02:28:21;5.47;;;3.80;;
13651;SDS011;6899;51.546;6.912;2022-07-06T02:30:50;4.20;;;3.15;;
13651;SDS011;6899;51.546;6.912;2022-07-06T02:33:17;7.00;;;3.70;;
13651;SDS011;6899;51.546;6.912;2022-07-06T02:35:46;4.05;;;3.30;;
13651;SDS011;6899;51.546;6.912;2022-07-06T02:38:13;5.65;;;3.92;;
13651;SDS011;6899;51.546;6.912;2022-07-06T02:40:40;4.63;;;2.70;;
13651;SDS011;6899;51.546;6.912;2022-07-06T02:43:07;8.60;;;3.67;;
13651;SDS011;6899;51.546;6.912;2022-07-06T02:45:34;5.28;;;2.97;;
13651;SDS011;6899;51.546;6.912;2022-07-06T02:48:02;4.90;;;2.90;;
13651;SDS011;6899;51.546;6.912;2022-07-06T02:50:30;3.65;;;3.28;;
13651;SDS011;6899;51.546;6.912;2022-07-06T02:52:57;5.22;;;3.17;;
13651;SDS011;6899;51.546;6.912;2022-07-06T02:55:26;5.03;;;2.85;;
13651;SDS011;6899;51.546;6.912;2022-07-06T02:57:55;5.13;;;3.40;;
13651;SDS011;6899;51.546;6.912;2022-07-06T03:00:22;4.35;;;3.40;;
13651;SDS011;6899;51.546;6.912;2022-07-06T03:02:49;3.95;;;3.53;;
13651;SDS011;6899;51.546;6.912;2022-07-06T03:05:18;4.97;;;3.55;;
13651;SDS011;6899;51.546;6.912;2022-07-06T03:07:45;5.35;;;3.60;;
13651;SDS011;6899;51.546;6.912;2022-07-06T03:10:12;6.80;;;4.20;;
13651;SDS011;6899;51.546;6.912;2022-07-06T03:12:39;7.22;;;4.20;;
13651;SDS011;6899;51.546;6.912;2022-07-06T03:15:06;5.85;;;4.05;;
13651;SDS011;6899;51.546;6.912;2022-07-06T03:17:35;5.03;;;3.28;;
13651;SDS011;6899;51.546;6.912;2022-07-06T03:20:02;6.22;;;4.07;;
13651;SDS011;6899;51.546;6.912;2022-07-06T03:22:31;5.18;;;3.92;;
13651;SDS011;6899;51.546;6.912;2022-07-06T03:24:58;5.03;;;3.95;;
13651;SDS011;6899;51.546;6.912;2022-07-06T03:27:25;5.15;;;3.53;;
13651;SDS011;6899;51.546;6.912;2022-07-06T03:29:52;5.95;;;3.72;;
13651;SDS011;6899;51.546;6.912;2022-07-06T03:32:19;6.50;;;3.78;;
13651;SDS011;6899;51.546;6.912;2022-07-06T03:34:46;5.32;;;3.33;;
13651;SDS011;6899;51.546;6.912;2022-07-06T03:37:16;9.43;;;3.97;;
13651;SDS011;6899;51.546;6.912;2022-07-06T03:39:44;7.72;;;3.30;;
13651;SDS011;6899;51.546;6.912;2022-07-06T03:42:11;6.75;;;3.13;;
13651;SDS011;6899;51.546;6.912;2022-07-06T03:44:38;4.60;;;2.97;;
13651;SDS011;6899;51.546;6.912;2022-07-06T03:47:04;4.70;;;3.20;;
13651;SDS011;6899;51.546;6.912;2022-07-06T03:49:32;5.63;;;3.00;;
13651;SDS011;6899;51.546;6.912;2022-07-06T03:51:59;4.88;;;2.97;;
13651;SDS011;6899;51.546;6.912;2022-07-06T03:54:26;3.75;;;2.67;;
13651;SDS011;6899;51.546;6.912;2022-07-06T03:56:54;6.32;;;2.95;;
13651;SDS011;6899;51.546;6.912;2022-07-06T03:59:21;6.60;;;2.83;;
13651;SDS011;6899;51.546;6.912;2022-07-06T04:01:47;8.27;;;3.33;;
13651;SDS011;6899;51.546;6.912;2022-07-06T04:04:18;6.35;;;2.50;;
13651;SDS011;6899;51.546;6.912;2022-07-06T04:06:45;6.30;;;2.80;;
13651;SDS011;6899;51.546;6.912;2022-07-06T04:09:12;5.20;;;2.63;;
13651;SDS011;6899;51.546;6.912;2022-07-06T04:11:38;6.05;;;2.60;;
13651;SDS011;6899;51.546;6.912;2022-07-06T04:14:07;5.18;;;3.20;;
13651;SDS011;6899;51.546;6.912;2022-07-06T04:16:34;3.50;;;2.45;;
13651;SDS011;6899;51.546;6.912;2022-07-06T04:19:00;5.75;;;3.10;;
13651;SDS011;6899;51.546;6.912;2022-07-06T04:21:27;6.20;;;3.05;;
13651;SDS011;6899;51.546;6.912;2022-07-06T04:23:54;5.82;;;3.08;;
13651;SDS011;6899;51.546;6.912;2022-07-06T04:26:21;9.02;;;2.95;;
13651;SDS011;6899;51.546;6.912;2022-07-06T04:28:48;6.43;;;3.03;;
13651;SDS011;6899;51.546;6.912;2022-07-06T04:31:16;5.60;;;2.90;;
13651;SDS011;6899;51.546;6.912;2022-07-06T04:33:43;5.10;;;3.15;;
13651;SDS011;6899;51.546;6.912;2022-07-06T04:36:10;6.03;;;2.75;;
13651;SDS011;6899;51.546;6.912;2022-07-06T04:38:37;5.60;;;3.00;;
13651;SDS011;6899;51.546;6.912;2022-07-06T04:41:04;4.72;;;3.35;;
13651;SDS011;6899;51.546;6.912;2022-07-06T04:43:31;4.80;;;2.83;;
13651;SDS011;6899;51.546;6.912;2022-07-06T04:45:58;5.50;;;2.80;;
13651;SDS011;6899;51.546;6.912;2022-07-06T04:48:27;4.05;;;2.60;;
13651;SDS011;6899;51.546;6.912;2022-07-06T04:50:54;4.90;;;2.88;;
13651;SDS011;6899;51.546;6.912;2022-07-06T04:53:21;5.15;;;3.10;;
13651;SDS011;6899;51.546;6.912;2022-07-06T04:55:48;5.85;;;2.70;;
13651;SDS011;6899;51.546;6.912;2022-07-06T04:58:15;5.45;;;3.20;;
13651;SDS011;6899;51.546;6.912;2022-07-06T05:00:42;9.75;;;3.22;;
13651;SDS011;6899;51.546;6.912;2022-07-06T05:03:09;5.57;;;3.63;;
13651;SDS011;6899;51.546;6.912;2022-07-06T05:05:37;5.13;;;2.60;;
13651;SDS011;6899;51.546;6.912;2022-07-06T05:08:04;6.53;;;2.83;;
13651;SDS011;6899;51.546;6.912;2022-07-06T05:10:31;4.45;;;2.42;;
13651;SDS011;6899;51.546;6.912;2022-07-06T05:12:58;3.85;;;2.58;;
13651;SDS011;6899;51.546;6.912;2022-07-06T05:15:25;5.40;;;2.58;;
13651;SDS011;6899;51.546;6.912;2022-07-06T05:17:52;4.10;;;2.30;;
13651;SDS011;6899;51.546;6.912;2022-07-06T05:20:19;4.28;;;1.88;;
13651;SDS011;6899;51.546;6.912;2022-07-06T05:22:47;4.30;;;2.13;;
13651;SDS011;6899;51.546;6.912;2022-07-06T05:25:15;4.47;;;2.17;;
13651;SDS011;6899;51.546;6.912;2022-07-06T05:27:42;4.80;;;2.05;;
13651;SDS011;6899;51.546;6.912;2022-07-06T05:30:09;5.72;;;2.00;;
13651;SDS011;6899;51.546;6.912;2022-07-06T05:32:36;3.55;;;1.90;;
13651;SDS011;6899;51.546;6.912;2022-07-06T05:35:04;5.07;;;2.00;;
13651;SDS011;6899;51.546;6.912;2022-07-06T05:37:31;6.05;;;1.80;;
13651;SDS011;6899;51.546;6.912;2022-07-06T05:40:00;3.60;;;1.88;;
13651;SDS011;6899;51.546;6.912;2022-07-06T05:42:27;6.00;;;1.98;;
13651;SDS011;6899;51.546;6.912;2022-07-06T05:44:54;3.05;;;1.77;;
13651;SDS011;6899;51.546;6.912;2022-07-06T05:47:21;4.38;;;1.80;;
13651;SDS011;6899;51.546;6.912;2022-07-06T05:50:06;3.58;;;1.60;;
13651;SDS011;6899;51.546;6.912;2022-07-06T05:52:43;2.20;;;1.50;;
13651;SDS011;6899;51.546;6.912;2022-07-06T05:55:12;7.07;;;1.92;;
13651;SDS011;6899;51.546;6.912;2022-07-06T05:57:39;3.85;;;1.65;;
13651;SDS011;6899;51.546;6.912;2022-07-06T06:00:06;4.63;;;1.88;;
13651;SDS011;6899;51.546;6.912;2022-07-06T06:02:38;6.25;;;2.10;;
13651;SDS011;6899;51.546;6.912;2022-07-06T06:05:06;2.65;;;1.90;;
13651;SDS011;6899;51.546;6.912;2022-07-06T06:07:34;7.88;;;2.17;;
13651;SDS011;6899;51.546;6.912;2022-07-06T06:10:05;3.92;;;1.98;;
13651;SDS011;6899;51.546;6.912;2022-07-06T06:12:37;5.90;;;2.08;;
13651;SDS011;6899;51.546;6.912;2022-07-06T06:15:06;2.97;;;1.60;;
13651;SDS011;6899;51.546;6.912;2022-07-06T06:17:33;2.55;;;1.83;;
13651;SDS011;6899;51.546;6.912;2022-07-06T06:20:01;3.70;;;1.70;;
13651;SDS011;6899;51.546;6.912;2022-07-06T06:22:43;4.68;;;2.05;;
13651;SDS011;6899;51.546;6.912;2022-07-06T06:25:11;2.80;;;1.60;;
13651;SDS011;6899;51.546;6.912;2022-07-06T06:27:39;3.08;;;1.77;;
13651;SDS011;6899;51.546;6.912;2022-07-06T06:30:07;5.70;;;1.50;;
13651;SDS011;6899;51.546;6.912;2022-07-06T06:32:35;6.03;;;2.10;;
13651;SDS011;6899;51.546;6.912;2022-07-06T06:35:03;2.13;;;1.73;;
13651;SDS011;6899;51.546;6.912;2022-07-06T06:37:31;3.33;;;1.58;;
13651;SDS011;6899;51.546;6.912;2022-07-06T06:39:59;9.82;;;1.77;;
13651;SDS011;6899;51.546;6.912;2022-07-06T06:42:26;4.00;;;2.08;;
13651;SDS011;6899;51.546;6.912;2022-07-06T06:44:54;4.15;;;1.90;;
13651;SDS011;6899;51.546;6.912;2022-07-06T06:47:21;4.60;;;1.55;;
13651;SDS011;6899;51.546;6.912;2022-07-06T06:49:48;3.03;;;1.40;;
13651;SDS011;6899;51.546;6.912;2022-07-06T06:52:15;5.32;;;1.67;;
13651;SDS011;6899;51.546;6.912;2022-07-06T06:54:42;3.47;;;1.40;;
13651;SDS011;6899;51.546;6.912;2022-07-06T06:57:09;2.78;;;1.73;;
13651;SDS011;6899;51.546;6.912;2022-07-06T06:59:36;6.20;;;1.90;;
13651;SDS011;6899;51.546;6.912;2022-07-06T07:02:04;4.47;;;1.80;;
13651;SDS011;6899;51.546;6.912;2022-07-06T07:04:31;1.52;;;1.13;;
13651;SDS011;6899;51.546;6.912;2022-07-06T07:06:58;6.70;;;3.85;;
13651;SDS011;6899;51.546;6.912;2022-07-06T07:09:25;4.97;;;1.95;;
13651;SDS011;6899;51.546;6.912;2022-07-06T07:11:51;4.80;;;1.60;;
13651;SDS011;6899;51.546;6.912;2022-07-06T07:14:19;4.70;;;1.52;;
13651;SDS011;6899;51.546;6.912;2022-07-06T07:16:47;2.75;;;1.55;;
13651;SDS011;6899;51.546;6.912;2022-07-06T07:19:15;8.50;;;1.40;;
13651;SDS011;6899;51.546;6.912;2022-07-06T07:21:42;4.43;;;1.40;;
13651;SDS011;6899;51.546;6.912;2022-07-06T07:24:09;2.58;;;1.42;;
13651;SDS011;6899;51.546;6.912;2022-07-06T07:26:38;3.78;;;1.42;;
13651;SDS011;6899;51.546;6.912;2022-07-06T07:29:05;4.55;;;1.60;;
13651;SDS011;6899;51.546;6.912;2022-07-06T07:31:31;2.97;;;1.35;;
13651;SDS011;6899;51.546;6.912;2022-07-06T07:34:04;4.65;;;1.30;;
13651;SDS011;6899;51.546;6.912;2022-07-06T07:36:33;3.63;;;1.25;;
13651;SDS011;6899;51.546;6.912;2022-07-06T07:39:00;4.50;;;1.17;;
13651;SDS011;6899;51.546;6.912;2022-07-06T07:41:27;3.55;;;1.00;;
13651;SDS011;6899;51.546;6.912;2022-07-06T07:43:54;2.05;;;1.00;;
13651;SDS011;6899;51.546;6.912;2022-07-06T07:46:21;7.32;;;1.30;;
13651;SDS011;6899;51.546;6.912;2022-07-06T07:48:48;1.58;;;0.90;;
13651;SDS011;6899;51.546;6.912;2022-07-06T07:51:15;2.47;;;0.90;;
13651;SDS011;6899;51.546;6.912;2022-07-06T07:53:45;2.35;;;1.20;;
13651;SDS011;6899;51.546;6.912;2022-07-06T07:56:12;3.30;;;1.15;;
13651;SDS011;6899;51.546;6.912;2022-07-06T07:58:39;1.85;;;0.90;;
13651;SDS011;6899;51.546;6.912;2022-07-06T08:01:06;1.15;;;0.70;;
13651;SDS011;6899;51.546;6.912;2022-07-06T08:03:32;2.83;;;0.90;;
13651;SDS011;6899;51.546;6.912;2022-07-06T08:05:59;1.05;;;0.45;;
13651;SDS011;6899;51.546;6.912;2022-07-06T08:08:26;2.63;;;1.23;;
13651;SDS011;6899;51.546;6.912;2022-07-06T08:10:54;3.20;;;0.80;;
13651;SDS011;6899;51.546;6.912;2022-07-06T08:13:21;3.28;;;1.10;;
13651;SDS011;6899;51.546;6.912;2022-07-06T08:15:48;2.40;;;0.90;;
13651;SDS011;6899;51.546;6.912;2022-07-06T08:18:17;2.22;;;1.00;;
13651;SDS011;6899;51.546;6.912;2022-07-06T08:20:47;2.20;;;1.23;;
13651;SDS011;6899;51.546;6.912;2022-07-06T08:23:14;1.52;;;0.90;;
13651;SDS011;6899;51.546;6.912;2022-07-06T08:25:41;1.73;;;0.95;;
13651;SDS011;6899;51.546;6.912;2022-07-06T08:28:09;1.50;;;0.80;;
13651;SDS011;6899;51.546;6.912;2022-07-06T08:30:36;1.95;;;0.80;;
13651;SDS011;6899;51.546;6.912;2022-07-06T08:33:03;2.03;;;1.05;;
13651;SDS011;6899;51.546;6.912;2022-07-06T08:35:30;1.83;;;0.88;;
13651;SDS011;6899;51.546;6.912;2022-07-06T08:37:57;1.58;;;1.05;;
13651;SDS011;6899;51.546;6.912;2022-07-06T08:40:28;1.40;;;0.90;;
13651;SDS011;6899;51.546;6.912;2022-07-06T08:42:59;2.50;;;1.05;;
13651;SDS011;6899;51.546;6.912;2022-07-06T08:45:27;2.15;;;0.90;;
13651;SDS011;6899;51.546;6.912;2022-07-06T08:47:56;3.38;;;1.00;;
13651;SDS011;6899;51.546;6.912;2022-07-06T08:50:29;1.65;;;0.73;;
13651;SDS011;6899;51.546;6.912;2022-07-06T08:52:56;2.72;;;0.80;;
13651;SDS011;6899;51.546;6.912;2022-07-06T08:55:24;2.03;;;0.88;;
13651;SDS011;6899;51.546;6.912;2022-07-06T08:57:52;1.95;;;1.02;;
13651;SDS011;6899;51.546;6.912;2022-07-06T09:00:21;3.72;;;1.10;;
13651;SDS011;6899;51.546;6.912;2022-07-06T09:02:50;4.45;;;1.30;;
13651;SDS011;6899;51.546;6.912;2022-07-06T09:05:21;3.17;;;1.05;;
13651;SDS011;6899;51.546;6.912;2022-07-06T09:07:49;3.50;;;1.13;;
13651;SDS011;6899;51.546;6.912;2022-07-06T09:10:18;3.58;;;1.10;;
13651;SDS011;6899;51.546;6.912;2022-07-06T09:12:47;2.67;;;0.85;;
13651;SDS011;6899;51.546;6.912;2022-07-06T09:15:14;2.38;;;0.95;;
13651;SDS011;6899;51.546;6.912;2022-07-06T09:17:42;3.83;;;1.00;;
13651;SDS011;6899;51.546;6.912;2022-07-06T09:20:11;2.47;;;1.10;;
13651;SDS011;6899;51.546;6.912;2022-07-06T09:22:40;0.80;;;0.80;;
13651;SDS011;6899;51.546;6.912;2022-07-06T09:25:08;1.52;;;0.60;;
13651;SDS011;6899;51.546;6.912;2022-07-06T09:27:37;1.65;;;0.73;;
13651;SDS011;6899;51.546;6.912;2022-07-06T09:30:05;2.35;;;1.08;;
13651;SDS011;6899;51.546;6.912;2022-07-06T09:32:39;5.28;;;1.13;;
13651;SDS011;6899;51.546;6.912;2022-07-06T09:35:07;2.25;;;0.98;;
13651;SDS011;6899;51.546;6.912;2022-07-06T09:37:35;1.92;;;0.75;;
13651;SDS011;6899;51.546;6.912;2022-07-06T09:40:15;2.75;;;1.30;;
13651;SDS011;6899;51.546;6.912;2022-07-06T09:42:44;2.15;;;1.10;;
13651;SDS011;6899;51.546;6.912;2022-07-06T09:45:19;1.77;;;0.88;;
13651;SDS011;6899;51.546;6.912;2022-07-06T09:47:47;3.15;;;1.10;;
13651;SDS011;6899;51.546;6.912;2022-07-06T09:50:15;3.75;;;1.00;;
13651;SDS011;6899;51.546;6.912;2022-07-06T09:52:52;1.08;;;0.73;;
13651;SDS011;6899;51.546;6.912;2022-07-06T09:55:21;2.53;;;1.10;;
13651;SDS011;6899;51.546;6.912;2022-07-06T09:57:52;2.75;;;0.85;;
13651;SDS011;6899;51.546;6.912;2022-07-06T10:00:20;1.05;;;0.50;;
13651;SDS011;6899;51.546;6.912;2022-07-06T10:02:47;1.98;;;0.85;;
13651;SDS011;6899;51.546;6.912;2022-07-06T10:05:15;1.75;;;0.98;;
13651;SDS011;6899;51.546;6.912;2022-07-06T10:07:43;2.55;;;0.70;;
13651;SDS011;6899;51.546;6.912;2022-07-06T10:10:15;2.50;;;1.02;;
13651;SDS011;6899;51.546;6.912;2022-07-06T10:12:44;2.95;;;0.82;;
13651;SDS011;6899;51.546;6.912;2022-07-06T10:15:14;2.42;;;0.90;;
13651;SDS011;6899;51.546;6.912;2022-07-06T10:17:43;1.00;;;0.90;;
13651;SDS011;6899;51.546;6.912;2022-07-06T10:20:11;1.65;;;0.90;;
13651;SDS011;6899;51.546;6.912;2022-07-06T10:22:39;1.52;;;0.65;;
13651;SDS011;6899;51.546;6.912;2022-07-06T10:25:08;2.30;;;1.17;;
13651;SDS011;6899;51.546;6.912;2022-07-06T10:27:35;3.22;;;1.00;;
13651;SDS011;6899;51.546;6.912;2022-07-06T10:30:04;3.78;;;0.80;;
13651;SDS011;6899;51.546;6.912;2022-07-06T10:32:32;2.33;;;1.08;;
13651;SDS011;6899;51.546;6.912;2022-07-06T10:34:59;2.05;;;1.00;;
13651;SDS011;6899;51.546;6.912;2022-07-06T10:37:27;1.90;;;0.90;;
13651;SDS011;6899;51.546;6.912;2022-07-06T10:39:54;1.30;;;0.80;;
13651;SDS011;6899;51.546;6.912;2022-07-06T10:42:40;3.80;;;1.10;;
13651;SDS011;6899;51.546;6.912;2022-07-06T10:45:11;4.03;;;1.20;;
13651;SDS011;6899;51.546;6.912;2022-07-06T10:47:40;4.57;;;0.80;;
13651;SDS011;6899;51.546;6.912;2022-07-06T10:50:07;1.65;;;1.10;;
13651;SDS011;6899;51.546;6.912;2022-07-06T10:52:50;1.45;;;1.05;;
13651;SDS011;6899;51.546;6.912;2022-07-06T10:55:28;2.95;;;1.00;;
13651;SDS011;6899;51.546;6.912;2022-07-06T10:58:00;2.85;;;0.90;;
13651;SDS011;6899;51.546;6.912;2022-07-06T11:00:49;1.83;;;0.77;;
13651;SDS011;6899;51.546;6.912;2022-07-06T11:03:30;4.53;;;1.13;;
13651;SDS011;6899;51.546;6.912;2022-07-06T11:05:58;2.92;;;1.10;;
13651;SDS011;6899;51.546;6.912;2022-07-06T11:11:24;2.90;;;1.02;;
13651;SDS011;6899;51.546;6.912;2022-07-06T11:13:54;2.15;;;0.93;;
13651;SDS011;6899;51.546;6.912;2022-07-06T11:16:24;2.67;;;1.17;;
13651;SDS011;6899;51.546;6.912;2022-07-06T11:19:03;1.85;;;0.90;;
13651;SDS011;6899;51.546;6.912;2022-07-06T11:21:34;3.28;;;1.17;;
13651;SDS011;6899;51.546;6.912;2022-07-06T11:24:03;2.05;;;1.33;;
13651;SDS011;6899;51.546;6.912;2022-07-06T11:26:31;1.45;;;0.80;;
13651;SDS011;6899;51.546;6.912;2022-07-06T11:29:02;2.47;;;1.00;;
13651;SDS011;6899;51.546;6.912;2022-07-06T11:31:35;4.40;;;1.38;;
13651;SDS011;6899;51.546;6.912;2022-07-06T11:34:03;2.38;;;0.75;;
13651;SDS011;6899;51.546;6.912;2022-07-06T11:36:31;2.35;;;0.80;;
13651;SDS011;6899;51.546;6.912;2022-07-06T11:38:58;1.95;;;0.80;;
13651;SDS011;6899;51.546;6.912;2022-07-06T11:41:28;1.17;;;0.80;;
13651;SDS011;6899;51.546;6.912;2022-07-06T11:43:55;1.30;;;0.93;;
13651;SDS011;6899;51.546;6.912;2022-07-06T11:46:24;1.00;;;0.90;;
13651;SDS011;6899;51.546;6.912;2022-07-06T11:48:55;2.10;;;1.10;;
13651;SDS011;6899;51.546;6.912;2022-07-06T11:51:23;1.77;;;1.10;;
13651;SDS011;6899;51.546;6.912;2022-07-06T11:53:52;2.42;;;1.10;;
13651;SDS011;6899;51.546;6.912;2022-07-06T11:56:20;3.03;;;0.90;;
13651;SDS011;6899;51.546;6.912;2022-07-06T11:58:51;1.90;;;1.00;;
13651;SDS011;6899;51.546;6.912;2022-07-06T12:01:18;3.30;;;1.27;;
13651;SDS011;6899;51.546;6.912;2022-07-06T12:03:49;2.95;;;1.30;;
13651;SDS011;6899;51.546;6.912;2022-07-06T12:06:17;1.80;;;1.00;;
13651;SDS011;6899;51.546;6.912;2022-07-06T12:08:46;1.50;;;1.02;;
13651;SDS011;6899;51.546;6.912;2022-07-06T12:11:21;2.40;;;1.00;;
13651;SDS011;6899;51.546;6.912;2022-07-06T12:13:49;1.70;;;0.60;;
13651;SDS011;6899;51.546;6.912;2022-07-06T12:16:16;1.40;;;0.98;;
13651;SDS011;6899;51.546;6.912;2022-07-06T12:18:45;3.22;;;1.30;;
13651;SDS011;6899;51.546;6.912;2022-07-06T12:21:16;3.05;;;1.25;;
13651;SDS011;6899;51.546;6.912;2022-07-06T12:23:46;2.70;;;1.10;;
13651;SDS011;6899;51.546;6.912;2022-07-06T12:26:15;2.03;;;1.05;;
13651;SDS011;6899;51.546;6.912;2022-07-06T12:28:45;3.25;;;0.82;;
13651;SDS011;6899;51.546;6.912;2022-07-06T12:33:59;3.83;;;1.00;;
13651;SDS011;6899;51.546;6.912;2022-07-06T12:36:27;2.40;;;0.90;;
13651;SDS011;6899;51.546;6.912;2022-07-06T12:38:54;2.05;;;1.00;;
13651;SDS011;6899;51.546;6.912;2022-07-06T12:41:25;1.17;;;0.80;;
13651;SDS011;6899;51.546;6.912;2022-07-06T12:43:59;2.97;;;0.80;;
13651;SDS011;6899;51.546;6.912;2022-07-06T12:46:29;4.97;;;1.02;;
13651;SDS011;6899;51.546;6.912;2022-07-06T12:48:57;1.70;;;0.90;;
13651;SDS011;6899;51.546;6.912;2022-07-06T12:51:25;2.00;;;0.68;;
13651;SDS011;6899;51.546;6.912;2022-07-06T12:54:11;1.65;;;0.80;;
13651;SDS011;6899;51.546;6.912;2022-07-06T12:59:28;1.65;;;1.13;;
13651;SDS011;6899;51.546;6.912;2022-07-06T13:01:56;1.15;;;1.00;;
13651;SDS011;6899;51.546;6.912;2022-07-06T13:04:24;3.97;;;1.15;;
13651;SDS011;6899;51.546;6.912;2022-07-06T13:06:53;1.77;;;1.02;;
13651;SDS011;6899;51.546;6.912;2022-07-06T13:09:20;1.38;;;0.70;;
13651;SDS011;6899;51.546;6.912;2022-07-06T13:11:48;1.95;;;0.80;;
13651;SDS011;6899;51.546;6.912;2022-07-06T13:14:16;1.42;;;0.63;;
13651;SDS011;6899;51.546;6.912;2022-07-06T13:16:44;4.00;;;1.00;;
13651;SDS011;6899;51.546;6.912;2022-07-06T13:19:12;2.67;;;0.80;;
13651;SDS011;6899;51.546;6.912;2022-07-06T13:21:39;1.67;;;0.90;;
13651;SDS011;6899;51.546;6.912;2022-07-06T13:24:08;1.95;;;0.88;;
13651;SDS011;6899;51.546;6.912;2022-07-06T13:26:34;2.10;;;0.90;;
13651;SDS011;6899;51.546;6.912;2022-07-06T13:29:02;2.83;;;1.05;;
13651;SDS011;6899;51.546;6.912;2022-07-06T13:31:30;2.42;;;1.00;;
13651;SDS011;6899;51.546;6.912;2022-07-06T13:33:57;2.75;;;1.00;;
13651;SDS011;6899;51.546;6.912;2022-07-06T13:36:24;2.92;;;0.85;;
13651;SDS011;6899;51.546;6.912;2022-07-06T13:38:50;3.25;;;0.90;;
13651;SDS011;6899;51.546;6.912;2022-07-06T13:41:19;3.83;;;1.05;;
13651;SDS011;6899;51.546;6.912;2022-07-06T13:43:46;3.05;;;0.82;;
13651;SDS011;6899;51.546;6.912;2022-07-06T13:46:13;4.20;;;0.82;;
13651;SDS011;6899;51.546;6.912;2022-07-06T13:48:41;2.20;;;0.80;;
13651;SDS011;6899;51.546;6.912;2022-07-06T13:51:09;1.00;;;0.70;;
13651;SDS011;6899;51.546;6.912;2022-07-06T13:53:36;2.70;;;1.10;;
13651;SDS011;6899;51.546;6.912;2022-07-06T13:56:04;1.95;;;0.60;;
13651;SDS011;6899;51.546;6.912;2022-07-06T13:58:34;1.55;;;0.63;;
13651;SDS011;6899;51.546;6.912;2022-07-06T14:01:07;2.30;;;1.00;;
13651;SDS011;6899;51.546;6.912;2022-07-06T14:03:34;1.20;;;0.82;;
13651;SDS011;6899;51.546;6.912;2022-07-06T14:06:03;1.70;;;0.82;;
13651;SDS011;6899;51.546;6.912;2022-07-06T14:08:32;3.40;;;0.82;;
13651;SDS011;6899;51.546;6.912;2022-07-06T14:11:00;2.60;;;0.93;;
13651;SDS011;6899;51.546;6.912;2022-07-06T14:13:27;1.95;;;0.90;;
13651;SDS011;6899;51.546;6.912;2022-07-06T14:15:56;3.35;;;0.80;;
13651;SDS011;6899;51.546;6.912;2022-07-06T14:18:23;1.02;;;0.80;;
13651;SDS011;6899;51.546;6.912;2022-07-06T14:20:51;1.38;;;0.80;;
13651;SDS011;6899;51.546;6.912;2022-07-06T14:23:20;1.85;;;0.98;;
13651;SDS011;6899;51.546;6.912;2022-07-06T14:25:48;1.58;;;0.60;;
13651;SDS011;6899;51.546;6.912;2022-07-06T14:28:16;3.90;;;1.00;;
13651;SDS011;6899;51.546;6.912;2022-07-06T14:30:46;1.40;;;0.82;;
13651;SDS011;6899;51.546;6.912;2022-07-06T14:33:15;1.73;;;0.90;;
13651;SDS011;6899;51.546;6.912;2022-07-06T14:35:44;1.42;;;0.82;;
13651;SDS011;6899;51.546;6.912;2022-07-06T14:38:13;4.50;;;1.10;;
13651;SDS011;6899;51.546;6.912;2022-07-06T14:40:40;2.50;;;1.10;;
13651;SDS011;6899;51.546;6.912;2022-07-06T14:43:08;3.08;;;1.00;;
13651;SDS011;6899;51.546;6.912;2022-07-06T14:45:35;1.98;;;0.80;;
13651;SDS011;6899;51.546;6.912;2022-07-06T14:48:02;0.98;;;0.90;;
13651;SDS011;6899;51.546;6.912;2022-07-06T14:50:34;1.75;;;0.80;;
13651;SDS011;6899;51.546;6.912;2022-07-06T14:53:01;2.47;;;0.60;;
13651;SDS011;6899;51.546;6.912;2022-07-06T14:55:28;2.65;;;0.75;;
13651;SDS011;6899;51.546;6.912;2022-07-06T14:57:55;2.15;;;0.90;;
13651;SDS011;6899;51.546;6.912;2022-07-06T15:00:22;2.03;;;1.00;;
13651;SDS011;6899;51.546;6.912;2022-07-06T15:02:49;2.40;;;0.90;;
13651;SDS011;6899;51.546;6.912;2022-07-06T15:05:16;1.13;;;0.80;;
13651;SDS011;6899;51.546;6.912;2022-07-06T15:07:45;3.65;;;0.90;;
13651;SDS011;6899;51.546;6.912;2022-07-06T15:10:12;1.20;;;0.80;;
13651;SDS011;6899;51.546;6.912;2022-07-06T15:12:39;1.30;;;0.95;;
13651;SDS011;6899;51.546;6.912;2022-07-06T15:15:06;1.38;;;0.82;;